createdAt,value
2018-03-03T00:00:20.038Z,109.45
2018-03-03T00:02:46.295Z,113.43
2018-03-03T00:05:12.553Z,114.72
2018-03-03T00:07:38.785Z,114.18
2018-03-03T00:10:05.018Z,107.82
2018-03-03T00:12:31.627Z,115.75
2018-03-03T00:14:57.877Z,118.30
2018-03-03T00:17:24.999Z,110.57
2018-03-03T00:19:51.233Z,114.25
2018-03-03T00:22:23.642Z,108.22
2018-03-03T00:24:50.206Z,122.28
2018-03-03T00:27:16.447Z,115.93
2018-03-03T00:29:42.680Z,121.18
2018-03-03T00:32:08.923Z,120.03
2018-03-03T00:34:35.153Z,118.47
2018-03-03T00:37:01.392Z,123.32
2018-03-03T00:39:27.625Z,117.50
2018-03-03T00:41:53.849Z,115.72
2018-03-03T00:44:20.104Z,121.90
2018-03-03T00:46:46.307Z,111.40
2018-03-03T00:49:12.541Z,113.72
2018-03-03T00:51:38.770Z,116.80
2018-03-03T00:54:05.018Z,120.55
2018-03-03T00:56:31.224Z,119.32
2018-03-03T00:58:57.431Z,117.40
2018-03-03T01:01:23.927Z,119.20
2018-03-03T01:03:50.134Z,118.13
2018-03-03T01:06:16.373Z,119.25
2018-03-03T01:08:42.609Z,114.25
2018-03-03T01:11:08.829Z,126.62
2018-03-03T01:13:35.057Z,115.37
2018-03-03T01:16:01.298Z,116.90
2018-03-03T01:18:27.555Z,105.78
2018-03-03T01:20:53.810Z,116.40
2018-03-03T01:23:20.017Z,116.70
2018-03-03T01:25:46.210Z,118.30
2018-03-03T01:28:12.425Z,115.82
2018-03-03T01:30:38.621Z,116.20
2018-03-03T01:33:04.864Z,115.90
2018-03-03T01:35:31.470Z,114.15
2018-03-03T01:37:57.696Z,113.70
2018-03-03T01:40:23.931Z,111.70
2018-03-03T01:42:50.151Z,114.65
2018-03-03T01:45:16.400Z,116.25
2018-03-03T01:47:42.650Z,118.75
2018-03-03T01:50:08.858Z,122.07
2018-03-03T01:52:35.063Z,122.18
2018-03-03T01:55:01.253Z,121.18
2018-03-03T01:57:27.497Z,114.30
2018-03-03T01:59:53.715Z,115.05
2018-03-03T02:02:19.907Z,123.32
2018-03-03T02:04:46.953Z,125.00
2018-03-03T02:07:13.520Z,114.75
2018-03-03T02:09:39.714Z,115.57
2018-03-03T02:12:06.325Z,115.10
2018-03-03T02:14:32.552Z,113.07
2018-03-03T02:16:58.760Z,121.50
2018-03-03T02:19:24.989Z,117.60
2018-03-03T02:21:51.220Z,109.82
2018-03-03T02:24:17.453Z,115.28
2018-03-03T02:26:43.692Z,120.30
2018-03-03T02:29:09.905Z,124.30
2018-03-03T02:31:36.186Z,118.70
2018-03-03T02:34:02.423Z,125.18
2018-03-03T02:36:28.647Z,124.28
2018-03-03T02:38:54.889Z,127.82
2018-03-03T02:41:21.126Z,120.32
2018-03-03T02:43:47.347Z,127.32
2018-03-03T02:46:13.573Z,122.32
2018-03-03T02:48:39.813Z,126.45
2018-03-03T02:51:06.023Z,128.18
2018-03-03T02:53:32.272Z,119.05
2018-03-03T02:55:58.471Z,116.25
2018-03-03T02:58:24.720Z,125.72
2018-03-03T03:00:50.917Z,125.00
2018-03-03T03:03:17.158Z,127.90
2018-03-03T03:05:43.392Z,125.78
2018-03-03T03:08:09.615Z,142.35
2018-03-03T03:10:35.847Z,129.43
2018-03-03T03:13:02.071Z,135.02
2018-03-03T03:15:28.323Z,131.52
2018-03-03T03:17:54.809Z,116.68
2018-03-03T03:20:21.398Z,132.73
2018-03-03T03:22:47.598Z,146.23
2018-03-03T03:25:13.830Z,147.95
2018-03-03T03:27:40.083Z,149.93
2018-03-03T03:30:06.296Z,128.32
2018-03-03T03:32:32.885Z,144.10
2018-03-03T03:34:59.094Z,140.37
2018-03-03T03:37:25.328Z,165.37
2018-03-03T03:39:51.551Z,143.35
2018-03-03T03:42:17.809Z,142.20
2018-03-03T03:44:44.374Z,139.10
2018-03-03T03:47:10.631Z,145.05
2018-03-03T03:49:36.844Z,142.20
2018-03-03T03:52:03.097Z,134.80
2018-03-03T03:54:29.362Z,141.02
2018-03-03T03:56:55.581Z,141.82
2018-03-03T03:59:21.825Z,152.75
2018-03-03T04:01:48.043Z,132.57
2018-03-03T04:04:14.276Z,128.57
2018-03-03T04:06:40.481Z,125.15
2018-03-03T04:09:06.722Z,93.45
2018-03-03T04:11:32.928Z,70.50
2018-03-03T04:13:59.169Z,76.45
2018-03-03T04:16:25.700Z,87.57
2018-03-03T04:18:51.917Z,89.65
2018-03-03T04:21:18.126Z,97.95
2018-03-03T04:23:44.417Z,108.12
2018-03-03T04:26:10.652Z,120.50
2018-03-03T04:28:36.878Z,123.25
2018-03-03T04:31:03.474Z,126.12
2018-03-03T04:33:29.734Z,117.85
2018-03-03T04:35:55.959Z,121.03
2018-03-03T04:38:22.607Z,111.35
2018-03-03T04:40:48.805Z,111.57
2018-03-03T04:43:15.075Z,124.07
2018-03-03T04:45:41.575Z,106.65
2018-03-03T04:48:07.833Z,103.43
2018-03-03T04:50:34.057Z,113.03
2018-03-03T04:53:00.324Z,120.13
2018-03-03T04:55:26.593Z,97.68
2018-03-03T04:57:53.253Z,85.10
2018-03-03T05:00:25.450Z,85.87
2018-03-03T05:03:07.507Z,105.00
2018-03-03T05:05:52.608Z,103.45
2018-03-03T05:08:24.810Z,95.57
2018-03-03T05:10:52.044Z,76.28
2018-03-03T05:13:24.226Z,100.28
2018-03-03T05:16:02.366Z,97.57
2018-03-03T05:18:34.841Z,87.00
2018-03-03T05:21:16.027Z,76.45
2018-03-03T05:23:59.103Z,94.50
2018-03-03T05:26:46.450Z,71.40
2018-03-03T05:29:18.824Z,96.97
2018-03-03T05:31:51.515Z,70.78
2018-03-03T05:34:23.921Z,71.93
2018-03-03T05:36:56.233Z,66.55
2018-03-03T05:39:43.336Z,62.55
2018-03-03T05:42:15.547Z,78.90
2018-03-03T05:44:47.810Z,68.97
2018-03-03T05:47:35.738Z,70.65
2018-03-03T05:50:22.190Z,75.80
2018-03-03T05:52:54.413Z,68.78
2018-03-03T05:55:37.907Z,67.97
2018-03-03T05:58:20.036Z,66.10
2018-03-03T06:00:52.309Z,70.65
2018-03-03T06:03:33.471Z,74.00
2018-03-03T06:06:06.566Z,61.83
2018-03-03T06:08:47.034Z,65.50
2018-03-03T06:11:13.256Z,84.03
2018-03-03T06:13:39.514Z,65.03
2018-03-03T06:16:05.750Z,67.22
2018-03-03T06:18:32.078Z,64.93
2018-03-03T06:20:58.336Z,77.90
2018-03-03T06:23:24.576Z,60.80
2018-03-03T06:25:50.847Z,63.35
2018-03-03T06:28:17.488Z,63.28
2018-03-03T06:30:43.727Z,58.70
2018-03-03T06:33:09.990Z,67.50
2018-03-03T06:35:36.235Z,61.42
2018-03-03T06:38:02.534Z,62.30
2018-03-03T06:40:28.749Z,63.05
2018-03-03T06:42:54.940Z,68.30
2018-03-03T06:45:21.578Z,76.07
2018-03-03T06:47:47.809Z,60.53
2018-03-03T06:50:14.006Z,68.03
2018-03-03T06:52:40.250Z,60.33
2018-03-03T06:55:06.457Z,59.95
2018-03-03T06:57:32.672Z,60.42
2018-03-03T06:59:58.936Z,72.78
2018-03-03T07:02:25.182Z,71.00
2018-03-03T07:04:51.795Z,69.07
2018-03-03T07:07:18.023Z,77.37
2018-03-03T07:09:44.250Z,65.35
2018-03-03T07:12:10.520Z,78.70
2018-03-03T07:14:51.735Z,68.18
2018-03-03T07:17:17.990Z,64.97
2018-03-03T07:19:44.237Z,66.28
2018-03-03T07:22:10.457Z,69.93
2018-03-03T07:24:36.682Z,71.35
2018-03-03T07:27:02.947Z,68.20
2018-03-03T07:29:29.181Z,69.70
2018-03-03T07:31:55.391Z,67.68
2018-03-03T07:34:21.647Z,69.78
2018-03-03T07:36:47.902Z,68.70
2018-03-03T07:39:14.904Z,73.10
2018-03-03T07:41:41.162Z,73.25
2018-03-03T07:44:07.420Z,72.47
2018-03-03T07:46:33.614Z,65.97
2018-03-03T07:48:59.838Z,65.80
2018-03-03T07:51:26.130Z,66.20
2018-03-03T07:53:52.702Z,60.63
2018-03-03T07:56:18.934Z,74.62
2018-03-03T07:58:49.043Z,68.18
2018-03-03T08:01:15.282Z,62.47
2018-03-03T08:03:41.573Z,65.03
2018-03-03T08:06:08.161Z,55.03
2018-03-03T08:08:34.422Z,68.00
2018-03-03T08:11:00.686Z,71.03
2018-03-03T08:13:26.928Z,80.80
2018-03-03T08:15:53.165Z,74.45
2018-03-03T08:18:19.404Z,76.82
2018-03-03T08:20:45.628Z,120.93
2018-03-03T08:23:11.855Z,79.37
2018-03-03T08:25:38.094Z,78.50
2018-03-03T08:28:04.341Z,71.85
2018-03-03T08:30:30.548Z,74.43
2018-03-03T08:32:56.786Z,83.30
2018-03-03T08:35:23.020Z,68.62
2018-03-03T08:37:49.257Z,72.40
2018-03-03T08:40:15.495Z,63.63
2018-03-03T08:42:41.713Z,66.50
2018-03-03T08:45:07.946Z,62.35
2018-03-03T08:47:34.177Z,72.43
2018-03-03T08:50:00.409Z,67.87
2018-03-03T08:52:26.647Z,72.22
2018-03-03T08:54:52.884Z,70.00
2018-03-03T08:57:19.107Z,78.22
2018-03-03T08:59:45.375Z,73.68
2018-03-03T09:02:11.615Z,87.75
2018-03-03T09:04:37.817Z,81.22
2018-03-03T09:07:04.009Z,79.55
2018-03-03T09:09:30.241Z,81.07
2018-03-03T09:11:56.515Z,89.68
2018-03-03T09:14:22.745Z,77.80
2018-03-03T09:16:48.986Z,88.78
2018-03-03T09:19:15.231Z,87.55
2018-03-03T09:21:41.478Z,91.68
2018-03-03T09:24:08.068Z,95.65
2018-03-03T09:26:34.320Z,88.45
2018-03-03T09:29:00.581Z,92.30
2018-03-03T09:31:27.150Z,92.00
2018-03-03T09:33:53.388Z,99.70
2018-03-03T09:36:20.077Z,105.78
2018-03-03T09:38:46.662Z,117.53
2018-03-03T09:41:12.922Z,82.93
2018-03-03T09:43:39.215Z,103.25
2018-03-03T09:46:05.474Z,97.28
2018-03-03T09:48:31.717Z,96.90
2018-03-03T09:50:57.943Z,96.60
2018-03-03T09:53:24.206Z,97.03
2018-03-03T09:55:50.455Z,87.68
2018-03-03T09:58:16.692Z,110.47
2018-03-03T10:00:42.977Z,113.65
2018-03-03T10:03:09.254Z,106.72
2018-03-03T10:05:35.527Z,98.55
2018-03-03T10:08:01.728Z,92.18
2018-03-03T10:10:27.969Z,75.87
2018-03-03T10:12:54.220Z,71.12
2018-03-03T10:15:20.522Z,86.05
2018-03-03T10:17:46.821Z,94.65
2018-03-03T10:20:13.039Z,86.30
2018-03-03T10:22:39.619Z,80.18
2018-03-03T10:25:05.807Z,69.32
2018-03-03T10:27:32.034Z,87.65
2018-03-03T10:29:58.274Z,83.43
2018-03-03T10:32:24.518Z,78.87
2018-03-03T10:34:50.775Z,91.40
2018-03-03T10:37:17.402Z,88.47
2018-03-03T10:39:44.016Z,83.15
2018-03-03T10:42:10.588Z,74.70
2018-03-03T10:44:36.802Z,80.28
2018-03-03T10:47:09.874Z,83.43
2018-03-03T10:49:36.150Z,76.30
2018-03-03T10:52:02.768Z,92.40
2018-03-03T10:54:29.373Z,76.85
2018-03-03T10:56:56.067Z,91.68
2018-03-03T10:59:22.313Z,84.60
2018-03-03T11:01:48.570Z,86.55
2018-03-03T11:04:14.870Z,84.47
2018-03-03T11:06:41.108Z,84.40
2018-03-03T11:09:07.340Z,87.78
2018-03-03T11:11:33.610Z,94.62
2018-03-03T11:16:33.557Z,100.10
2018-03-03T11:18:59.758Z,98.28
2018-03-03T11:21:25.988Z,104.85
2018-03-03T11:23:52.282Z,91.85
2018-03-03T11:26:18.543Z,101.45
2018-03-03T11:28:44.741Z,99.75
2018-03-03T11:31:10.996Z,92.07
2018-03-03T11:33:37.210Z,101.32
2018-03-03T11:36:03.456Z,96.07
2018-03-03T11:38:29.684Z,107.12
2018-03-03T11:40:55.937Z,100.85
2018-03-03T11:43:22.169Z,95.45
2018-03-03T11:45:48.397Z,89.53
2018-03-03T11:48:14.610Z,86.18
2018-03-03T11:50:41.231Z,93.57
2018-03-03T11:53:07.432Z,88.20
2018-03-03T11:55:33.681Z,95.15
2018-03-03T11:57:59.922Z,86.10
2018-03-03T12:00:26.543Z,87.88
2018-03-03T12:02:52.827Z,77.12
2018-03-03T12:05:19.086Z,83.22
2018-03-03T12:07:45.333Z,80.28
2018-03-03T12:10:11.585Z,77.68
2018-03-03T12:12:37.834Z,87.32
2018-03-03T12:15:04.078Z,87.93
2018-03-03T12:17:30.314Z,91.30
2018-03-03T12:19:56.592Z,82.55
2018-03-03T12:22:23.165Z,81.70
2018-03-03T12:24:49.433Z,83.93
2018-03-03T12:27:15.687Z,78.20
2018-03-03T12:29:42.279Z,79.12
2018-03-03T12:32:08.511Z,77.12
2018-03-03T12:34:34.758Z,79.90
2018-03-03T12:37:01.021Z,81.97
2018-03-03T12:39:27.658Z,84.85
2018-03-03T12:41:54.266Z,79.75
2018-03-03T12:44:20.526Z,83.90
2018-03-03T12:46:46.795Z,86.53
2018-03-03T12:49:13.065Z,75.43
2018-03-03T12:51:39.708Z,73.78
2018-03-03T12:54:05.945Z,78.32
2018-03-03T12:56:32.146Z,82.35
2018-03-03T12:58:58.730Z,84.53
2018-03-03T13:01:24.981Z,88.75
2018-03-03T13:03:51.227Z,79.53
2018-03-03T13:06:17.473Z,78.40
2018-03-03T13:08:43.779Z,82.50
2018-03-03T13:11:10.008Z,76.20
2018-03-03T13:13:36.266Z,87.60
2018-03-03T13:16:02.863Z,75.35
2018-03-03T13:18:29.107Z,80.57
2018-03-03T13:20:55.370Z,81.65
2018-03-03T13:23:21.991Z,79.22
2018-03-03T13:25:48.248Z,77.00
2018-03-03T13:28:14.497Z,75.90
2018-03-03T13:30:40.715Z,81.30
2018-03-03T13:33:07.345Z,84.18
2018-03-03T13:35:33.928Z,79.03
2018-03-03T13:38:00.166Z,86.20
2018-03-03T13:40:26.471Z,73.50
2018-03-03T13:42:52.682Z,84.82
2018-03-03T13:45:19.418Z,73.37
2018-03-03T13:47:45.642Z,78.85
2018-03-03T13:50:12.284Z,74.80
2018-03-03T13:52:38.506Z,77.10
2018-03-03T13:55:04.747Z,75.60
2018-03-03T13:57:31.458Z,74.90
2018-03-03T13:59:57.670Z,79.78
2018-03-03T14:02:23.875Z,84.70
2018-03-03T14:04:50.482Z,76.53
2018-03-03T14:07:16.714Z,80.53
2018-03-03T14:09:42.927Z,82.65
2018-03-03T14:12:09.631Z,82.95
2018-03-03T14:14:35.855Z,83.82
2018-03-03T14:17:02.076Z,82.05
2018-03-03T14:19:28.321Z,83.32
2018-03-03T14:21:54.584Z,78.28
2018-03-03T14:24:20.835Z,88.93
2018-03-03T14:26:47.085Z,76.32
2018-03-03T14:29:13.367Z,77.28
2018-03-03T14:31:39.627Z,86.35
2018-03-03T14:34:05.919Z,84.30
2018-03-03T14:36:32.490Z,76.72
2018-03-03T14:38:58.742Z,88.62
2018-03-03T14:41:24.993Z,83.53
2018-03-03T14:43:51.277Z,79.70
2018-03-03T14:46:17.563Z,87.28
2018-03-03T14:48:43.778Z,82.00
2018-03-03T14:51:10.037Z,86.68
2018-03-03T14:53:36.270Z,76.43
2018-03-03T14:56:02.498Z,80.38
2018-03-03T14:58:28.743Z,93.10
2018-03-03T15:00:54.939Z,78.68
2018-03-03T15:03:21.208Z,88.80
2018-03-03T15:05:47.467Z,82.22
2018-03-03T15:08:13.684Z,82.55
2018-03-03T15:10:39.949Z,84.00
2018-03-03T15:13:07.005Z,76.47
2018-03-03T15:15:33.268Z,80.65
2018-03-03T15:17:59.527Z,90.50
2018-03-03T15:20:26.188Z,73.22
2018-03-03T15:22:52.895Z,78.32
2018-03-03T15:25:19.203Z,84.80
2018-03-03T15:27:45.508Z,81.50
2018-03-03T15:30:12.088Z,86.70
2018-03-03T15:32:38.343Z,84.65
2018-03-03T15:35:04.989Z,86.78
2018-03-03T15:37:32.018Z,81.12
2018-03-03T15:39:58.283Z,87.15
2018-03-03T15:42:24.567Z,84.03
2018-03-03T15:44:50.838Z,83.50
2018-03-03T15:47:17.074Z,78.62
2018-03-03T15:49:43.296Z,84.60
2018-03-03T15:52:09.573Z,80.50
2018-03-03T15:54:35.801Z,86.35
2018-03-03T15:57:02.041Z,82.20
2018-03-03T15:59:28.261Z,87.70
2018-03-03T16:01:54.518Z,93.00
2018-03-03T16:04:21.150Z,88.62
2018-03-03T16:06:47.384Z,98.20
2018-03-03T16:09:14.013Z,80.35
2018-03-03T16:11:40.303Z,90.35
2018-03-03T16:14:06.533Z,84.53
2018-03-03T16:16:32.790Z,91.28
2018-03-03T16:18:58.998Z,81.57
2018-03-03T16:21:25.251Z,84.93
2018-03-03T16:23:51.551Z,89.45
2018-03-03T16:26:17.819Z,80.80
2018-03-03T16:28:44.418Z,87.07
2018-03-03T16:31:10.709Z,75.57
2018-03-03T16:33:36.965Z,80.05
2018-03-03T16:36:03.537Z,76.70
2018-03-03T16:38:29.738Z,79.28
2018-03-03T16:40:55.980Z,86.90
2018-03-03T16:43:22.241Z,87.90
2018-03-03T16:45:48.842Z,105.82
2018-03-03T16:48:15.120Z,110.07
2018-03-03T16:50:41.624Z,101.43
2018-03-03T16:53:07.855Z,91.87
2018-03-03T16:55:34.076Z,81.60
2018-03-03T16:58:01.219Z,80.10
2018-03-03T17:00:27.454Z,83.90
2018-03-03T17:02:53.712Z,83.15
2018-03-03T17:05:19.966Z,91.85
2018-03-03T17:07:46.239Z,83.12
2018-03-03T17:10:12.454Z,90.57
2018-03-03T17:12:45.552Z,89.62
2018-03-03T17:15:11.781Z,93.22
2018-03-03T17:17:38.009Z,108.47
2018-03-03T17:20:04.266Z,87.85
2018-03-03T17:22:30.915Z,97.00
2018-03-03T17:24:57.145Z,87.12
2018-03-03T17:27:23.432Z,90.47
2018-03-03T17:29:49.661Z,102.40
2018-03-03T17:32:15.938Z,97.25
2018-03-03T17:34:42.132Z,90.78
2018-03-03T17:37:08.425Z,87.28
2018-03-03T17:39:34.661Z,87.28
2018-03-03T17:42:00.902Z,95.53
2018-03-03T17:44:27.136Z,91.03
2018-03-03T17:46:53.372Z,90.90
2018-03-03T17:49:19.629Z,132.30
2018-03-03T17:51:45.900Z,88.68
2018-03-03T17:54:12.160Z,93.20
2018-03-03T17:56:38.399Z,93.75
2018-03-03T17:59:04.642Z,94.68
2018-03-03T18:01:30.947Z,91.57
2018-03-03T18:03:57.188Z,102.57
2018-03-03T18:06:23.827Z,95.07
2018-03-03T18:08:50.439Z,93.75
2018-03-03T18:11:16.698Z,95.18
2018-03-03T18:13:43.322Z,95.05
2018-03-03T18:16:09.996Z,94.10
2018-03-03T18:18:36.227Z,106.90
2018-03-03T18:21:02.456Z,107.20
2018-03-03T18:23:28.726Z,104.85
2018-03-03T18:25:54.950Z,101.53
2018-03-03T18:28:21.211Z,99.07
2018-03-03T18:30:48.933Z,103.95
2018-03-03T18:33:15.155Z,114.12
2018-03-03T18:35:41.392Z,103.65
2018-03-03T18:38:07.702Z,103.90
2018-03-03T18:40:34.020Z,101.10
2018-03-03T18:43:00.285Z,99.62
2018-03-03T18:45:26.601Z,95.45
2018-03-03T18:47:52.863Z,93.57
2018-03-03T18:50:19.087Z,98.12
2018-03-03T18:52:45.366Z,85.25
2018-03-03T18:55:11.621Z,83.22
2018-03-03T18:57:37.862Z,92.28
2018-03-03T19:00:04.165Z,89.22
2018-03-03T19:02:30.417Z,87.50
2018-03-03T19:04:56.653Z,87.62
2018-03-03T19:07:22.940Z,86.93
2018-03-03T19:09:49.184Z,84.28
2018-03-03T19:12:15.458Z,77.07
2018-03-03T19:14:42.514Z,79.80
2018-03-03T19:17:09.193Z,77.62
2018-03-03T19:19:35.460Z,88.97
2018-03-03T19:22:01.725Z,80.00
2018-03-03T19:24:27.977Z,83.53
2018-03-03T19:26:54.238Z,89.40
2018-03-03T19:29:20.531Z,83.60
2018-03-03T19:31:46.746Z,82.47
2018-03-03T19:34:13.014Z,84.65
2018-03-03T19:36:39.270Z,79.72
2018-03-03T19:39:05.915Z,82.30
2018-03-03T19:41:32.527Z,84.90
2018-03-03T19:43:58.809Z,75.57
2018-03-03T19:46:32.136Z,78.82
2018-03-03T19:48:58.813Z,88.28
2018-03-03T19:51:25.442Z,92.90
2018-03-03T19:53:52.085Z,93.75
2018-03-03T19:56:18.754Z,90.38
2018-03-03T19:58:44.998Z,87.55
2018-03-03T20:01:11.279Z,76.62
2018-03-03T20:03:37.806Z,88.45
2018-03-03T20:06:04.043Z,85.82
2018-03-03T20:08:30.653Z,88.80
2018-03-03T20:10:56.932Z,99.10
2018-03-03T20:13:23.192Z,91.90
2018-03-03T20:15:51.436Z,88.20
2018-03-03T20:18:18.045Z,95.65
2018-03-03T20:20:44.718Z,101.15
2018-03-03T20:23:10.974Z,97.75
2018-03-03T20:25:37.256Z,90.18
2018-03-03T20:28:03.863Z,93.50
2018-03-03T20:30:30.173Z,100.25
2018-03-03T20:32:56.424Z,94.35
2018-03-03T20:35:22.698Z,88.47
2018-03-03T20:37:48.958Z,95.68
2018-03-03T20:40:15.225Z,83.37
2018-03-03T20:42:41.905Z,101.75
2018-03-03T20:45:08.241Z,95.22
2018-03-03T20:47:34.529Z,86.43
2018-03-03T20:50:01.171Z,90.30
2018-03-03T20:52:27.513Z,99.75
2018-03-03T20:54:53.813Z,88.25
2018-03-03T20:57:20.084Z,87.28
2018-03-03T20:59:46.839Z,101.40
2018-03-03T21:02:13.098Z,88.05
2018-03-03T21:04:39.364Z,110.85
2018-03-03T21:07:05.903Z,86.82
2018-03-03T21:09:32.266Z,86.60
2018-03-03T21:12:14.264Z,97.93
2018-03-03T21:14:40.814Z,92.85
2018-03-03T21:17:07.121Z,97.20
2018-03-03T21:19:33.483Z,91.87
2018-03-03T21:21:59.787Z,96.28
2018-03-03T21:24:26.064Z,86.63
2018-03-03T21:26:52.387Z,98.43
2018-03-03T21:29:18.617Z,97.45
2018-03-03T21:31:44.877Z,88.15
2018-03-03T21:34:11.159Z,89.30
2018-03-03T21:36:37.429Z,98.53
2018-03-03T21:39:04.107Z,94.62
2018-03-03T21:41:30.348Z,89.82
2018-03-03T21:43:56.584Z,94.32
2018-03-03T21:46:22.817Z,103.62
2018-03-03T21:48:49.034Z,104.82
2018-03-03T21:51:15.313Z,107.93
2018-03-03T21:53:41.886Z,103.47
2018-03-03T21:56:08.110Z,96.05
2018-03-03T21:58:34.308Z,104.75
2018-03-03T22:01:00.561Z,100.93
2018-03-03T22:03:26.799Z,93.65
2018-03-03T22:05:53.075Z,97.85
2018-03-03T22:08:19.701Z,94.85
2018-03-03T22:10:45.981Z,97.62
2018-03-03T22:13:12.249Z,97.60
2018-03-03T22:15:38.523Z,99.07
2018-03-03T22:18:05.123Z,102.87
2018-03-03T22:20:31.418Z,99.53
2018-03-03T22:22:57.687Z,89.28
2018-03-03T22:25:23.979Z,102.53
2018-03-03T22:27:50.215Z,92.12
2018-03-03T22:30:16.481Z,108.35
2018-03-03T22:32:43.151Z,106.75
2018-03-03T22:35:09.412Z,100.70
2018-03-03T22:37:35.738Z,101.65
2018-03-03T22:40:02.452Z,106.45
2018-03-03T22:42:28.682Z,107.72
2018-03-03T22:44:54.920Z,102.90
2018-03-03T22:47:28.024Z,104.55
2018-03-03T22:49:54.283Z,101.40
2018-03-03T22:52:20.874Z,110.10
2018-03-03T22:54:47.138Z,103.38
2018-03-03T22:57:13.366Z,111.45
2018-03-03T22:59:39.586Z,99.60
2018-03-03T23:02:05.874Z,100.75
2018-03-03T23:04:32.086Z,92.15
2018-03-03T23:06:58.356Z,99.60
2018-03-03T23:09:24.918Z,111.57
2018-03-03T23:11:51.120Z,88.07
2018-03-03T23:14:17.371Z,91.63
2018-03-03T23:16:44.028Z,95.93
2018-03-03T23:19:10.618Z,100.65
2018-03-03T23:21:36.871Z,92.60
2018-03-03T23:24:03.113Z,94.93
2018-03-03T23:26:29.710Z,92.97
2018-03-03T23:28:55.972Z,92.53
2018-03-03T23:31:22.217Z,87.32
2018-03-03T23:33:48.826Z,83.25
2018-03-03T23:36:15.029Z,87.53
2018-03-03T23:38:41.357Z,89.25
2018-03-03T23:41:07.582Z,83.28
2018-03-03T23:43:33.781Z,86.15
2018-03-03T23:46:00.019Z,82.05
2018-03-03T23:48:26.252Z,93.78
2018-03-03T23:50:52.478Z,84.30
2018-03-03T23:53:18.728Z,72.50
2018-03-03T23:55:44.946Z,78.28
2018-03-03T23:58:11.168Z,75.78
